Time;durP1;ratioP1;P1;durP2;ratioP2;P2;SDS_P1;SDS_P2;PMS_P1;PMS_P2;Temp;Humidity;BMP_temperature;BMP_pressure;BME280_temperature;BME280_humidity;BME280_pressure;Samples;Min_cycle;Max_cycle;Signal;HPM_P1;HPM_P2
2021/07/26 00:01:40;;;;;;;6.95;4.30;;;20.00;99.90;;;;;;5033949;28;20108;-48
2021/07/26 00:04:06;;;;;;;6.85;4.07;;;20.10;99.90;;;;;;5034302;28;20056;-47
2021/07/26 00:06:31;;;;;;;4.20;3.80;;;20.10;99.90;;;;;;5033890;28;20088;-49
2021/07/26 00:08:57;;;;;;;11.95;3.97;;;20.10;99.90;;;;;;5033665;28;20507;-47
2021/07/26 00:11:22;;;;;;;6.25;4.97;;;20.00;99.90;;;;;;5033545;28;20022;-50
2021/07/26 00:13:48;;;;;;;5.65;4.80;;;20.20;99.90;;;;;;5033299;28;20117;-50
2021/07/26 00:16:13;;;;;;;11.40;5.85;;;20.20;99.90;;;;;;5033730;28;20105;-51
2021/07/26 00:18:39;;;;;;;6.90;4.65;;;20.10;99.90;;;;;;5033538;28;20487;-47
2021/07/26 00:21:04;;;;;;;7.72;4.65;;;20.00;99.90;;;;;;5033772;28;20033;-48
2021/07/26 00:23:31;;;;;;;12.63;4.90;;;19.90;99.90;;;;;;5033655;28;20108;-48
2021/07/26 00:25:56;;;;;;;6.57;4.43;;;19.90;99.90;;;;;;5033674;28;20112;-49
2021/07/26 00:28:22;;;;;;;8.43;4.43;;;19.80;99.90;;;;;;5033740;28;20163;-49
2021/07/26 00:30:47;;;;;;;5.30;3.88;;;19.80;99.90;;;;;;5033275;28;20025;-48
2021/07/26 00:36:24;;;;;;;6.00;3.60;;;19.70;99.90;;;;;;5027817;28;20037;-47
2021/07/26 00:38:49;;;;;;;7.10;3.60;;;19.70;99.90;;;;;;5033332;28;20493;-47
2021/07/26 00:41:16;;;;;;;7.75;3.90;;;19.70;99.90;;;;;;5033341;28;20033;-48
2021/07/26 00:43:42;;;;;;;8.27;4.03;;;19.70;99.90;;;;;;5033153;28;20033;-51
2021/07/26 00:46:07;;;;;;;4.60;3.92;;;19.70;99.90;;;;;;5032858;28;20037;-50
2021/07/26 00:48:33;;;;;;;10.23;4.32;;;19.70;99.90;;;;;;5032934;28;20138;-49
2021/07/26 00:50:58;;;;;;;6.78;3.42;;;19.70;99.90;;;;;;5032897;28;20475;-48
2021/07/26 00:53:24;;;;;;;6.30;4.38;;;19.80;99.90;;;;;;5033077;28;20493;-49
2021/07/26 00:55:50;;;;;;;6.38;3.83;;;19.80;99.90;;;;;;5032931;28;20033;-51
2021/07/26 00:58:15;;;;;;;7.72;4.32;;;19.80;99.90;;;;;;5032726;28;20037;-47
2021/07/26 01:00:41;;;;;;;7.53;4.93;;;19.80;99.90;;;;;;5031767;28;20511;-46
2021/07/26 01:03:06;;;;;;;6.28;4.22;;;19.80;99.90;;;;;;5032731;28;20395;-54
2021/07/26 01:05:32;;;;;;;5.47;4.00;;;19.70;99.90;;;;;;5032688;28;20056;-51
2021/07/26 01:07:57;;;;;;;6.32;4.22;;;19.60;99.90;;;;;;5032879;28;20045;-48
2021/07/26 01:10:23;;;;;;;8.93;3.45;;;19.60;99.90;;;;;;5032691;28;20103;-47
2021/07/26 01:12:48;;;;;;;4.13;3.67;;;19.50;99.90;;;;;;5032953;28;20025;-55
2021/07/26 01:15:14;;;;;;;8.05;3.97;;;19.50;99.90;;;;;;5032259;28;20022;-48
2021/07/26 01:18:17;;;;;;;5.70;4.00;;;19.40;99.90;;;;;;5033090;28;20029;-44
2021/07/26 01:20:43;;;;;;;7.18;3.85;;;19.40;99.90;;;;;;5032359;28;20053;-49
2021/07/26 01:23:08;;;;;;;9.18;4.93;;;19.40;99.90;;;;;;5032695;28;20053;-51
2021/07/26 01:25:35;;;;;;;7.97;4.22;;;19.40;99.90;;;;;;5032114;28;20061;-49
2021/07/26 01:28:00;;;;;;;6.65;4.07;;;19.40;99.90;;;;;;5032396;28;20312;-50
2021/07/26 01:30:26;;;;;;;6.10;4.28;;;19.40;99.90;;;;;;5032172;28;20028;-50
2021/07/26 01:32:51;;;;;;;4.35;3.38;;;19.40;99.90;;;;;;5032508;28;20387;-46
2021/07/26 01:35:17;;;;;;;6.22;3.33;;;19.30;99.90;;;;;;5032245;28;20028;-48
2021/07/26 01:37:42;;;;;;;6.82;3.97;;;19.30;99.90;;;;;;5032393;28;20079;-51
2021/07/26 01:40:09;;;;;;;6.50;4.88;;;19.20;99.90;;;;;;5032040;28;20029;-48
2021/07/26 01:42:42;;;;;;;6.78;4.35;;;19.30;99.90;;;;;;5032399;28;20031;-48
2021/07/26 01:45:08;;;;;;;7.03;4.28;;;19.20;99.90;;;;;;5032500;28;20029;-50
2021/07/26 01:47:36;;;;;;;7.78;4.75;;;19.10;99.90;;;;;;5032281;28;20025;-45
2021/07/26 01:50:10;;;;;;;7.25;4.93;;;19.00;99.90;;;;;;5032019;28;20025;-50
2021/07/26 01:52:36;;;;;;;4.90;4.35;;;19.00;99.90;;;;;;5032241;28;20032;-47
2021/07/26 01:55:02;;;;;;;5.80;3.80;;;19.00;99.90;;;;;;5032516;28;20034;-52
2021/07/26 01:57:27;;;;;;;6.35;4.32;;;18.90;99.90;;;;;;5030546;28;20037;-53
2021/07/26 01:59:53;;;;;;;6.57;3.83;;;18.90;99.90;;;;;;5032015;28;20025;-47
2021/07/26 02:02:19;;;;;;;6.88;4.97;;;18.90;99.90;;;;;;5030996;28;20036;-45
2021/07/26 02:04:44;;;;;;;6.15;4.47;;;18.80;99.90;;;;;;5031924;28;20037;-46
2021/07/26 02:07:10;;;;;;;4.90;3.85;;;18.80;99.90;;;;;;5046858;22;20056;-48
2021/07/26 02:09:35;;;;;;;6.35;4.22;;;18.80;99.90;;;;;;5013569;28;20482;-51
2021/07/26 02:12:04;;;;;;;6.30;4.25;;;18.80;99.90;;;;;;5031137;28;20032;-48
2021/07/26 02:14:30;;;;;;;8.52;4.05;;;18.80;99.90;;;;;;5013499;28;20021;-52
2021/07/26 02:16:55;;;;;;;6.78;4.10;;;18.70;99.90;;;;;;5031319;28;20053;-49
2021/07/26 02:19:21;;;;;;;4.90;3.75;;;18.70;99.90;;;;;;5030582;28;20229;-47
2021/07/26 02:21:47;;;;;;;5.43;4.20;;;18.70;99.90;;;;;;5031225;28;20021;-50
2021/07/26 02:24:12;;;;;;;4.40;4.00;;;18.70;99.90;;;;;;5031252;28;20022;-49
2021/07/26 02:26:38;;;;;;;7.15;3.95;;;18.70;99.90;;;;;;5013228;28;20125;-51
2021/07/26 02:29:05;;;;;;;5.57;4.30;;;18.70;99.90;;;;;;5030545;28;20536;-49
2021/07/26 02:31:31;;;;;;;7.82;3.63;;;18.70;99.90;;;;;;5031161;28;20552;-51
2021/07/26 02:33:56;;;;;;;4.63;3.63;;;18.70;99.90;;;;;;5013459;28;20026;-54
2021/07/26 02:36:22;;;;;;;4.82;3.85;;;18.70;99.90;;;;;;5031273;28;20056;-50
2021/07/26 02:38:48;;;;;;;9.57;4.18;;;18.70;99.90;;;;;;5030210;28;20042;-49
2021/07/26 02:41:14;;;;;;;5.47;3.72;;;18.60;99.90;;;;;;5031217;28;20040;-49
2021/07/26 02:43:41;;;;;;;6.25;3.95;;;18.60;99.90;;;;;;5031053;28;20475;-49
2021/07/26 02:46:06;;;;;;;6.88;4.18;;;18.50;99.90;;;;;;5030986;28;20041;-49
2021/07/26 02:48:36;;;;;;;9.05;4.43;;;18.50;99.90;;;;;;5012880;28;20398;-52
2021/07/26 02:51:02;;;;;;;6.72;4.50;;;18.50;99.90;;;;;;5012880;28;20029;-49
2021/07/26 02:53:28;;;;;;;5.70;3.97;;;18.40;99.90;;;;;;5030683;28;20030;-48
2021/07/26 02:55:53;;;;;;;5.90;4.07;;;18.40;99.90;;;;;;5030572;28;20025;-50
2021/07/26 02:58:20;;;;;;;8.32;4.38;;;18.40;99.90;;;;;;5030567;28;20038;-48
2021/07/26 03:00:46;;;;;;;6.65;4.55;;;18.40;99.90;;;;;;5029881;28;20064;-47
2021/07/26 03:03:11;;;;;;;4.75;4.22;;;18.40;99.90;;;;;;5012873;28;20029;-50
2021/07/26 03:05:37;;;;;;;6.07;4.28;;;18.40;99.90;;;;;;5030585;28;20053;-48
2021/07/26 03:08:03;;;;;;;6.28;3.70;;;18.40;99.90;;;;;;5030298;28;20486;-49
2021/07/26 03:10:28;;;;;;;6.85;3.92;;;18.40;99.90;;;;;;5029856;28;20030;-50
2021/07/26 03:12:54;;;;;;;13.00;4.80;;;18.40;99.90;;;;;;5030700;28;20032;-50
2021/07/26 03:15:21;;;;;;;7.18;4.22;;;18.40;99.90;;;;;;5028639;28;20386;-50
2021/07/26 03:17:47;;;;;;;6.43;4.85;;;18.40;99.90;;;;;;5029083;28;20021;-49
2021/07/26 03:20:13;;;;;;;4.50;4.07;;;18.40;99.90;;;;;;5029640;28;20032;-50
2021/07/26 03:23:01;;;;;;;6.25;4.88;;;18.40;99.90;;;;;;5030231;28;20033;-48
2021/07/26 03:25:28;;;;;;;6.05;4.57;;;18.40;99.90;;;;;;5029864;28;20048;-45
2021/07/26 03:27:54;;;;;;;5.60;4.22;;;18.40;99.90;;;;;;5012327;28;20569;-50
2021/07/26 03:30:21;;;;;;;6.18;3.90;;;18.40;99.90;;;;;;5029733;28;20383;-48
2021/07/26 03:32:47;;;;;;;6.85;3.97;;;18.40;99.90;;;;;;5030271;28;20072;-49
2021/07/26 03:35:14;;;;;;;11.35;3.85;;;18.40;99.90;;;;;;5012619;28;20245;-51
2021/07/26 03:37:40;;;;;;;8.07;4.05;;;18.40;99.90;;;;;;5012522;28;20529;-51
2021/07/26 03:40:07;;;;;;;6.80;3.90;;;18.40;99.90;;;;;;5011759;28;20029;-49
2021/07/26 03:42:34;;;;;;;6.45;4.15;;;18.40;99.90;;;;;;5030346;28;20060;-52
2021/07/26 03:45:00;;;;;;;5.57;4.07;;;18.40;99.90;;;;;;5030106;28;20037;-51
2021/07/26 03:47:25;;;;;;;5.53;3.97;;;18.40;99.90;;;;;;5030043;28;20025;-51
2021/07/26 03:49:51;;;;;;;4.32;3.92;;;18.40;99.90;;;;;;5029661;28;20532;-49
2021/07/26 03:52:18;;;;;;;8.90;4.28;;;18.40;99.90;;;;;;5030055;28;20018;-51
2021/07/26 03:54:43;;;;;;;3.95;3.40;;;18.40;99.90;;;;;;5030054;28;20406;-50
2021/07/26 03:57:08;;;;;;;5.97;3.90;;;18.40;99.90;;;;;;5012269;28;20025;-52
2021/07/26 03:59:34;;;;;;;7.38;4.35;;;18.30;99.90;;;;;;5011860;28;20022;-53
2021/07/26 04:01:59;;;;;;;9.45;4.22;;;18.30;99.90;;;;;;5012191;28;20633;-50
2021/07/26 04:04:26;;;;;;;5.47;4.97;;;18.40;99.90;;;;;;5030323;28;20025;-50
2021/07/26 04:06:55;;;;;;;6.63;3.83;;;18.30;99.90;;;;;;5029707;28;20060;-51
2021/07/26 04:09:23;;;;;;;5.57;4.70;;;18.40;99.90;;;;;;5029251;28;20490;-52
2021/07/26 04:11:55;;;;;;;11.98;6.65;;;18.40;99.90;;;;;;5029941;28;20435;-48
2021/07/26 04:14:25;;;;;;;7.55;5.85;;;18.40;99.90;;;;;;5028125;28;20022;-50
2021/07/26 04:16:51;;;;;;;8.20;5.53;;;18.50;99.90;;;;;;5028706;28;20033;-51
2021/07/26 04:19:16;;;;;;;8.52;4.88;;;18.50;99.90;;;;;;5029150;28;20501;-52
2021/07/26 04:21:42;;;;;;;10.50;5.80;;;18.50;99.90;;;;;;5030163;28;20026;-53
2021/07/26 04:24:08;;;;;;;8.27;5.82;;;18.40;99.90;;;;;;5029777;28;20499;-51
2021/07/26 04:26:33;;;;;;;7.43;5.22;;;18.40;99.90;;;;;;5029485;28;20069;-49
2021/07/26 04:28:59;;;;;;;7.60;5.72;;;18.30;99.90;;;;;;5028959;28;20170;-52
2021/07/26 04:31:24;;;;;;;8.60;5.75;;;18.30;99.90;;;;;;5029692;28;20021;-52
2021/07/26 04:33:49;;;;;;;6.75;5.82;;;18.30;99.90;;;;;;5029765;28;20479;-51
2021/07/26 04:36:15;;;;;;;6.85;5.32;;;18.30;99.90;;;;;;5030562;28;20031;-51
2021/07/26 04:38:40;;;;;;;8.75;5.47;;;18.40;99.90;;;;;;5032392;28;20414;-51
2021/07/26 04:41:06;;;;;;;11.73;6.68;;;18.40;99.90;;;;;;5033245;28;20049;-52
2021/07/26 04:43:33;;;;;;;10.10;5.32;;;18.40;99.90;;;;;;5033114;28;20040;-51
2021/07/26 04:45:59;;;;;;;6.30;5.60;;;18.40;99.90;;;;;;5032938;28;20082;-48
2021/07/26 04:48:24;;;;;;;6.95;5.60;;;18.40;99.90;;;;;;5015369;28;20112;-49
2021/07/26 04:50:50;;;;;;;7.70;6.03;;;18.40;99.90;;;;;;5032205;28;20032;-50
2021/07/26 04:53:16;;;;;;;9.98;5.80;;;18.50;99.90;;;;;;4998941;28;20154;-48
2021/07/26 04:55:41;;;;;;;8.05;5.45;;;18.40;99.90;;;;;;5015129;28;20053;-50
2021/07/26 04:58:07;;;;;;;11.63;6.00;;;18.40;99.90;;;;;;5032956;28;20364;-48
2021/07/26 05:00:32;;;;;;;8.75;5.72;;;18.40;99.90;;;;;;5032007;28;20024;-50
2021/07/26 05:02:58;;;;;;;6.57;5.97;;;18.50;99.90;;;;;;5032675;28;20032;-47
2021/07/26 05:05:23;;;;;;;7.18;6.07;;;18.60;99.90;;;;;;5032679;28;20033;-50
2021/07/26 05:07:49;;;;;;;7.03;6.20;;;18.70;99.90;;;;;;5032479;28;20040;-47
2021/07/26 05:10:15;;;;;;;7.47;5.95;;;18.80;99.90;;;;;;5031661;28;20402;-51
2021/07/26 05:12:42;;;;;;;8.70;6.53;;;18.90;99.90;;;;;;5031256;28;20025;-50
2021/07/26 05:15:08;;;;;;;8.88;6.72;;;19.00;99.90;;;;;;5031957;28;20025;-52
2021/07/26 05:17:34;;;;;;;8.02;5.55;;;19.10;99.90;;;;;;5031747;28;20030;-52
2021/07/26 05:19:59;;;;;;;7.45;6.15;;;19.10;99.90;;;;;;5013521;28;20040;-48
2021/07/26 05:22:25;;;;;;;13.85;6.22;;;19.10;99.90;;;;;;5029544;28;20056;-53
2021/07/26 05:24:50;;;;;;;11.80;6.45;;;19.20;99.90;;;;;;5031146;28;20457;-49
2021/07/26 05:27:16;;;;;;;11.60;5.65;;;19.30;99.90;;;;;;5031890;28;20504;-50
2021/07/26 05:29:42;;;;;;;9.15;6.72;;;19.40;99.90;;;;;;5031268;28;20120;-49
2021/07/26 05:32:08;;;;;;;7.80;6.07;;;19.50;99.90;;;;;;5014171;28;20105;-44
2021/07/26 05:34:34;;;;;;;10.95;6.38;;;19.50;99.90;;;;;;5014375;28;20509;-49
2021/07/26 05:37:01;;;;;;;8.68;6.97;;;19.70;99.90;;;;;;5014389;28;20032;-48
2021/07/26 05:39:26;;;;;;;7.45;6.38;;;19.90;99.90;;;;;;5029737;28;20029;-49
2021/07/26 05:41:53;;;;;;;8.73;6.43;;;19.90;99.90;;;;;;5032132;28;20483;-49
2021/07/26 05:44:18;;;;;;;10.60;6.55;;;19.90;99.90;;;;;;5031961;28;20036;-53
2021/07/26 05:46:44;;;;;;;9.20;5.82;;;19.90;99.90;;;;;;5031326;28;20467;-52
2021/07/26 05:49:10;;;;;;;6.00;5.40;;;19.90;99.90;;;;;;5031168;28;20033;-52
2021/07/26 05:51:35;;;;;;;9.30;6.55;;;19.90;99.90;;;;;;5031789;28;20547;-50
2021/07/26 05:54:01;;;;;;;11.50;6.43;;;20.00;99.90;;;;;;5031815;28;20403;-51
2021/07/26 05:56:29;;;;;;;9.55;7.30;;;20.00;99.90;;;;;;5031658;28;20108;-51
2021/07/26 05:59:01;;;;;;;10.48;6.82;;;20.00;99.90;;;;;;5031052;28;20515;-49
2021/07/26 06:04:10;;;;;;;8.07;6.82;;;20.10;99.90;;;;;;5031872;28;20021;-49
2021/07/26 06:06:39;;;;;;;8.80;6.32;;;20.00;99.90;;;;;;5031539;28;20045;-48
2021/07/26 06:09:04;;;;;;;8.32;5.97;;;19.90;99.90;;;;;;5030883;28;20025;-50
2021/07/26 06:11:30;;;;;;;6.97;6.05;;;19.90;99.90;;;;;;5031485;28;20036;-48
2021/07/26 06:13:56;;;;;;;11.25;5.95;;;19.90;99.90;;;;;;5031425;28;20471;-50
2021/07/26 06:16:21;;;;;;;6.82;5.55;;;19.90;99.90;;;;;;5031310;28;20033;-52
2021/07/26 06:18:47;;;;;;;7.43;6.05;;;19.90;99.90;;;;;;5030859;28;20029;-48
2021/07/26 06:21:12;;;;;;;8.45;5.85;;;20.00;99.90;;;;;;5031232;28;20497;-49
2021/07/26 06:23:38;;;;;;;9.52;5.68;;;20.10;99.90;;;;;;5031356;28;20036;-48
2021/07/26 06:26:05;;;;;;;7.47;5.60;;;20.10;99.90;;;;;;5031211;28;20025;-49
2021/07/26 06:28:32;;;;;;;10.98;7.18;;;20.20;99.90;;;;;;5030839;28;20036;-50
2021/07/26 06:30:58;;;;;;;6.45;5.82;;;20.20;99.90;;;;;;5030457;28;20029;-47
2021/07/26 06:33:23;;;;;;;7.40;6.70;;;20.30;99.90;;;;;;5031035;28;20029;-47
2021/07/26 06:35:49;;;;;;;9.38;6.13;;;20.30;99.90;;;;;;5030902;28;20096;-50
2021/07/26 06:38:14;;;;;;;7.82;5.68;;;20.30;99.90;;;;;;5029835;28;20021;-50
2021/07/26 06:40:43;;;;;;;10.35;7.03;;;20.30;99.90;;;;;;5030008;28;20025;-54
2021/07/26 06:43:09;;;;;;;7.68;5.80;;;20.30;99.90;;;;;;5013322;28;20034;-54
2021/07/26 06:45:34;;;;;;;11.10;6.05;;;20.40;99.90;;;;;;5030929;28;20041;-51
2021/07/26 06:48:00;;;;;;;9.90;6.45;;;20.50;99.90;;;;;;5030678;28;20537;-48
2021/07/26 06:50:25;;;;;;;7.40;5.95;;;20.50;99.90;;;;;;5029980;28;20031;-50
2021/07/26 06:52:50;;;;;;;7.28;6.57;;;20.60;99.90;;;;;;5030723;28;20076;-50
2021/07/26 06:55:16;;;;;;;15.52;6.60;;;20.70;99.90;;;;;;5030728;28;20505;-50
2021/07/26 06:57:42;;;;;;;9.20;7.07;;;20.70;99.90;;;;;;5030891;28;20029;-51
2021/07/26 07:00:07;;;;;;;8.45;6.22;;;20.80;99.90;;;;;;5028977;28;20545;-56
2021/07/26 07:02:33;;;;;;;8.70;6.82;;;20.90;99.90;;;;;;5030435;28;20105;-52
2021/07/26 07:05:01;;;;;;;15.52;8.23;;;21.00;99.90;;;;;;5030545;28;20100;-51
2021/07/26 07:07:26;;;;;;;10.60;7.57;;;20.90;99.90;;;;;;5030572;28;20434;-48
2021/07/26 07:09:53;;;;;;;11.00;7.47;;;20.90;99.90;;;;;;5012060;28;20087;-49
2021/07/26 07:12:19;;;;;;;9.45;6.82;;;20.80;99.90;;;;;;5030431;28;20479;-51
2021/07/26 07:14:44;;;;;;;9.07;6.95;;;20.80;99.90;;;;;;5030546;28;20101;-48
2021/07/26 07:17:10;;;;;;;8.25;7.40;;;20.70;99.90;;;;;;5030342;28;20017;-50
2021/07/26 07:19:40;;;;;;;7.72;6.85;;;20.70;99.90;;;;;;5029631;28;20430;-48
2021/07/26 07:22:06;;;;;;;8.98;6.63;;;20.70;99.90;;;;;;5030247;28;20030;-52
2021/07/26 07:24:32;;;;;;;8.48;6.13;;;20.80;99.90;;;;;;5030151;28;20075;-49
2021/07/26 07:26:57;;;;;;;8.75;6.03;;;21.10;99.90;;;;;;5030129;28;20037;-51
2021/07/26 07:29:23;;;;;;;14.07;5.18;;;21.20;99.90;;;;;;5028651;28;20035;-49
2021/07/26 07:31:49;;;;;;;6.53;5.75;;;21.40;99.90;;;;;;5030157;28;20022;-51
2021/07/26 07:34:15;;;;;;;6.45;5.30;;;21.60;99.90;;;;;;5029986;28;20048;-55
2021/07/26 07:36:42;;;;;;;6.13;5.53;;;21.70;99.90;;;;;;5028610;28;20048;-52
2021/07/26 07:39:10;;;;;;;7.05;5.15;;;21.80;99.90;;;;;;5024403;28;20026;-51
2021/07/26 07:41:36;;;;;;;10.85;4.95;;;21.90;99.90;;;;;;5027319;28;20018;-49
2021/07/26 07:44:02;;;;;;;6.88;4.63;;;22.10;99.90;;;;;;5027471;28;20375;-48
2021/07/26 07:46:28;;;;;;;5.72;4.43;;;22.30;99.90;;;;;;5026971;28;20021;-47
2021/07/26 07:48:53;;;;;;;7.95;4.30;;;22.60;99.90;;;;;;5026658;28;20033;-49
2021/07/26 07:51:19;;;;;;;7.57;4.93;;;23.10;99.90;;;;;;5029678;28;20022;-49
2021/07/26 07:53:47;;;;;;;4.72;4.28;;;23.80;99.90;;;;;;5029086;28;20029;-47
2021/07/26 07:56:13;;;;;;;5.38;4.32;;;24.40;99.90;;;;;;5031376;28;20565;-49
2021/07/26 07:58:38;;;;;;;5.13;4.38;;;25.20;98.80;;;;;;5031790;28;20108;-51
2021/07/26 08:01:05;;;;;;;5.80;4.68;;;26.10;96.60;;;;;;5028519;28;20033;-50
2021/07/26 08:03:30;;;;;;;5.25;4.25;;;26.80;95.00;;;;;;5027903;28;20037;-47
2021/07/26 08:05:59;;;;;;;4.95;3.55;;;27.40;94.80;;;;;;5028792;28;20037;-51
2021/07/26 08:08:25;;;;;;;7.22;3.67;;;28.20;93.30;;;;;;5029557;28;20064;-49
2021/07/26 08:10:50;;;;;;;5.10;3.50;;;29.20;92.00;;;;;;5029428;28;20025;-49
2021/07/26 08:13:20;;;;;;;5.90;3.22;;;30.20;90.30;;;;;;5031102;28;20021;-48
2021/07/26 08:15:51;;;;;;;6.20;3.45;;;30.70;88.30;;;;;;5033293;28;20061;-48
2021/07/26 08:18:17;;;;;;;4.75;3.10;;;31.40;85.50;;;;;;5032559;28;20033;-48
2021/07/26 08:20:43;;;;;;;8.60;3.15;;;32.00;82.40;;;;;;5029922;28;20037;-51
2021/07/26 08:23:10;;;;;;;5.18;2.70;;;32.70;81.30;;;;;;5032006;28;20045;-48
2021/07/26 08:25:35;;;;;;;3.17;2.95;;;33.20;78.40;;;;;;5038002;28;20049;-59
2021/07/26 08:28:00;;;;;;;4.75;2.65;;;33.70;77.60;;;;;;5030037;28;20041;-48
2021/07/26 08:30:32;;;;;;;3.00;2.72;;;34.30;73.90;;;;;;5030848;28;20068;-52
2021/07/26 08:32:58;;;;;;;4.78;2.92;;;34.30;73.20;;;;;;5032682;28;20410;-52
2021/07/26 08:35:24;;;;;;;4.82;2.95;;;34.40;72.00;;;;;;5047240;28;20101;-49
2021/07/26 08:37:50;;;;;;;5.72;2.75;;;33.50;71.10;;;;;;5030813;28;20310;-56
2021/07/26 08:40:18;;;;;;;4.90;3.10;;;32.50;72.50;;;;;;5030943;28;20084;-60
2021/07/26 08:42:44;;;;;;;7.88;2.92;;;31.80;74.80;;;;;;5032181;28;20043;-62
2021/07/26 08:45:10;;;;;;;3.83;3.30;;;31.20;76.20;;;;;;5030850;28;20034;-60
2021/07/26 08:47:39;;;;;;;2.95;2.75;;;30.80;76.60;;;;;;5032679;28;20029;-58
2021/07/26 08:50:06;;;;;;;4.65;2.28;;;30.40;77.10;;;;;;5027977;28;20037;-50
2021/07/26 08:52:36;;;;;;;6.32;2.60;;;29.90;79.30;;;;;;5027536;28;20029;-49
2021/07/26 08:55:02;;;;;;;5.15;2.92;;;29.80;80.30;;;;;;5030544;28;20029;-48
2021/07/26 08:57:28;;;;;;;4.03;3.63;;;30.10;80.40;;;;;;5028719;28;20033;-48
2021/07/26 08:59:54;;;;;;;6.25;3.00;;;29.90;79.50;;;;;;5030584;28;20022;-54
2021/07/26 09:02:19;;;;;;;3.08;2.60;;;29.80;79.30;;;;;;5013812;28;20036;-55
2021/07/26 09:04:45;;;;;;;3.50;2.83;;;29.80;78.90;;;;;;5031724;28;20029;-53
2021/07/26 09:07:11;;;;;;;3.15;2.60;;;29.60;79.10;;;;;;5013780;28;20041;-55
2021/07/26 09:09:44;;;;;;;5.63;3.17;;;29.60;79.00;;;;;;5030721;28;20029;-57
2021/07/26 09:12:11;;;;;;;2.70;2.40;;;29.80;78.80;;;;;;5030948;28;20033;-52
2021/07/26 09:14:39;;;;;;;3.17;2.28;;;29.60;76.30;;;;;;5025790;28;20411;-56
2021/07/26 09:17:07;;;;;;;3.13;2.72;;;29.50;77.10;;;;;;5000087;28;20663;-58
2021/07/26 09:19:59;;;;;;;2.40;2.20;;;28.70;76.30;;;;;;5032538;28;20171;-59
2021/07/26 09:22:29;;;;;;;2.47;1.88;;;28.50;78.50;;;;;;5031573;28;20056;-59
2021/07/26 09:25:40;;;;;;;2.17;1.92;;;28.40;77.20;;;;;;5015460;28;20095;-61
2021/07/26 09:28:14;;;;;;;2.22;2.00;;;28.80;78.50;;;;;;5023938;28;20153;-56
2021/07/26 09:30:47;;;;;;;4.82;2.45;;;29.30;78.10;;;;;;5031641;28;20025;-57
2021/07/26 09:33:28;;;;;;;6.35;3.17;;;29.40;78.60;;;;;;5033377;28;20014;-59
2021/07/26 09:36:08;;;;;;;3.53;3.20;;;29.30;78.80;;;;;;5031474;28;20060;-54
2021/07/26 09:38:35;;;;;;;3.10;2.90;;;29.00;79.40;;;;;;5030342;28;20113;-55
2021/07/26 09:41:01;;;;;;;9.18;3.33;;;28.90;79.00;;;;;;5031335;28;20414;-53
2021/07/26 09:43:27;;;;;;;3.28;2.95;;;28.70;79.70;;;;;;5032143;28;20025;-52
2021/07/26 09:45:54;;;;;;;3.67;2.58;;;28.30;81.20;;;;;;5032634;28;20040;-49
2021/07/26 09:48:23;;;;;;;6.63;3.05;;;28.20;81.70;;;;;;5030936;28;20513;-56
2021/07/26 09:50:50;;;;;;;6.82;2.75;;;28.40;82.30;;;;;;5030806;28;20477;-55
2021/07/26 09:53:23;;;;;;;5.80;2.80;;;28.20;81.30;;;;;;5031145;28;20041;-60
2021/07/26 09:55:54;;;;;;;4.72;3.22;;;28.10;82.50;;;;;;5030005;28;20033;-56
2021/07/26 09:58:34;;;;;;;2.42;2.20;;;28.00;81.90;;;;;;5032445;28;20018;-54
2021/07/26 10:01:00;;;;;;;2.97;2.40;;;27.70;79.90;;;;;;5015330;28;20025;-52
2021/07/26 10:03:27;;;;;;;4.00;2.70;;;27.40;81.00;;;;;;5031535;28;20040;-56
2021/07/26 10:05:54;;;;;;;2.55;2.35;;;27.30;83.00;;;;;;5032512;28;20017;-58
2021/07/26 10:08:21;;;;;;;8.80;2.58;;;27.30;82.40;;;;;;5030135;28;20022;-59
2021/07/26 10:10:47;;;;;;;2.65;2.42;;;27.00;82.60;;;;;;5029927;28;20033;-53
2021/07/26 10:13:13;;;;;;;5.30;2.90;;;26.80;84.40;;;;;;5030535;28;20025;-55
2021/07/26 10:15:39;;;;;;;4.40;2.53;;;26.70;84.70;;;;;;5030837;28;20522;-55
2021/07/26 10:18:05;;;;;;;3.13;2.50;;;27.10;85.30;;;;;;5030126;28;20029;-53
2021/07/26 10:20:36;;;;;;;4.13;2.90;;;27.40;83.20;;;;;;5029653;28;20468;-51
2021/07/26 10:23:16;;;;;;;2.38;2.28;;;27.50;81.50;;;;;;5030331;28;20128;-51
2021/07/26 10:25:44;;;;;;;3.63;2.75;;;27.30;81.30;;;;;;5030210;28;20022;-54
2021/07/26 10:28:26;;;;;;;5.78;2.85;;;27.10;81.40;;;;;;5030347;28;20040;-54
2021/07/26 10:30:52;;;;;;;6.82;2.35;;;26.70;82.00;;;;;;5030060;28;20056;-53
2021/07/26 10:33:18;;;;;;;5.00;2.95;;;26.50;83.00;;;;;;5030452;28;20510;-52
2021/07/26 10:35:48;;;;;;;5.93;2.88;;;25.90;87.20;;;;;;5029073;28;20045;-51
2021/07/26 10:38:14;;;;;;;7.13;6.05;;;25.40;90.00;;;;;;5009951;28;20077;-54
2021/07/26 10:40:41;;;;;;;2.90;2.70;;;25.10;90.20;;;;;;5011343;28;20034;-54
2021/07/26 10:43:12;;;;;;;4.00;3.17;;;24.70;91.10;;;;;;5024212;28;20018;-53
2021/07/26 10:45:53;;;;;;;5.95;3.28;;;24.40;92.30;;;;;;5030864;28;20030;-51
2021/07/26 10:48:22;;;;;;;5.30;3.55;;;24.20;94.50;;;;;;5030524;28;20075;-51
2021/07/26 10:50:49;;;;;;;7.72;4.00;;;24.00;95.30;;;;;;5029693;28;20079;-50
2021/07/26 10:53:36;;;;;;;10.90;3.63;;;23.70;96.30;;;;;;5030561;28;20025;-51
2021/07/26 10:56:08;;;;;;;7.10;3.72;;;23.40;96.80;;;;;;5028686;28;20445;-53
2021/07/26 10:58:39;;;;;;;12.95;3.90;;;23.40;98.30;;;;;;5025876;28;20028;-47
2021/07/26 11:01:28;;;;;;;6.32;3.40;;;23.60;99.00;;;;;;5029049;28;20446;-47
2021/07/26 11:03:55;;;;;;;4.30;2.80;;;23.80;97.40;;;;;;5022884;28;20045;-46
2021/07/26 11:06:41;;;;;;;3.22;2.70;;;24.00;97.20;;;;;;5029850;28;20529;-45
2021/07/26 11:09:19;;;;;;;3.90;3.13;;;24.30;96.70;;;;;;5029966;28;20402;-45
2021/07/26 11:11:51;;;;;;;3.17;2.63;;;24.60;95.40;;;;;;5030104;28;20025;-47
2021/07/26 11:14:18;;;;;;;3.22;2.60;;;24.70;95.50;;;;;;5029823;28;20033;-51
2021/07/26 11:16:56;;;;;;;5.07;2.67;;;24.80;95.70;;;;;;5030756;28;20045;-50
2021/07/26 11:19:40;;;;;;;3.05;2.60;;;24.70;93.50;;;;;;5030337;28;20025;-52
2021/07/26 11:22:06;;;;;;;3.03;2.55;;;24.70;92.70;;;;;;5030629;28;20564;-51
2021/07/26 11:24:41;;;;;;;2.70;2.30;;;24.60;93.00;;;;;;5030333;28;20029;-48
2021/07/26 11:27:11;;;;;;;;;;;24.70;93.40;;;;;;5030470;28;20490;-48
2021/07/26 11:29:36;;;;;;;3.95;2.95;;;24.70;93.10;;;;;;5028786;28;19936;-49
2021/07/26 11:32:03;;;;;;;3.17;2.20;;;24.70;92.60;;;;;;5030090;28;20104;-49
2021/07/26 11:34:36;;;;;;;3.80;2.38;;;24.60;93.20;;;;;;5030254;28;20029;-50
2021/07/26 11:37:08;;;;;;;3.08;2.45;;;24.60;94.00;;;;;;5029633;28;20029;-50
2021/07/26 11:39:59;;;;;;;3.83;2.75;;;24.60;95.00;;;;;;5030880;28;20444;-51
2021/07/26 11:42:36;;;;;;;4.13;2.70;;;24.50;94.40;;;;;;5029827;28;20390;-46
2021/07/26 11:45:03;;;;;;;2.58;2.38;;;24.50;94.90;;;;;;5031077;28;20036;-47
2021/07/26 11:47:33;;;;;;;6.22;2.60;;;24.50;96.10;;;;;;5033952;28;20495;-51
2021/07/26 11:50:01;;;;;;;7.45;2.05;;;24.40;96.00;;;;;;5034149;28;20060;-50
2021/07/26 11:52:27;;;;;;;4.30;2.80;;;24.40;94.80;;;;;;5034181;28;20453;-48
2021/07/26 11:54:52;;;;;;;5.00;2.47;;;24.30;94.70;;;;;;5034204;28;20057;-51
2021/07/26 11:57:18;;;;;;;6.13;2.65;;;24.30;95.90;;;;;;5034127;28;20017;-47
2021/07/26 11:59:54;;;;;;;4.07;2.97;;;24.20;97.30;;;;;;5032709;28;20033;-48
2021/07/26 12:02:30;;;;;;;7.38;3.83;;;23.70;98.90;;;;;;5033944;28;20029;-47
2021/07/26 12:05:01;;;;;;;5.65;3.83;;;23.20;99.70;;;;;;5033890;28;20084;-47
2021/07/26 12:07:44;;;;;;;7.03;4.22;;;22.70;99.90;;;;;;5033609;28;20072;-50
2021/07/26 12:10:11;;;;;;;12.40;4.40;;;22.40;99.90;;;;;;5033357;28;20740;-48
2021/07/26 12:12:38;;;;;;;7.60;3.85;;;22.30;99.90;;;;;;5033539;28;20025;-50
2021/07/26 12:15:27;;;;;;;4.10;3.60;;;22.20;99.90;;;;;;5033334;28;20379;-49
2021/07/26 12:18:07;;;;;;;7.22;4.05;;;22.10;99.90;;;;;;5033756;28;20029;-50
2021/07/26 12:20:38;;;;;;;5.07;3.72;;;22.00;99.90;;;;;;5031903;28;20083;-52
2021/07/26 12:23:22;;;;;;;6.28;3.97;;;21.90;99.90;;;;;;5036711;28;20029;-46
2021/07/26 12:25:49;;;;;;;6.30;3.50;;;21.90;99.90;;;;;;5034945;28;20076;-47
2021/07/26 12:28:16;;;;;;;5.10;3.13;;;22.00;99.90;;;;;;5034927;28;20032;-51
2021/07/26 12:30:44;;;;;;;5.68;3.22;;;22.00;99.90;;;;;;5034184;28;20025;-49
2021/07/26 12:33:15;;;;;;;5.95;2.80;;;22.10;99.90;;;;;;5034499;28;20029;-50
2021/07/26 12:35:41;;;;;;;3.85;2.80;;;22.20;99.90;;;;;;5034357;28;20025;-53
2021/07/26 12:38:20;;;;;;;5.57;2.83;;;22.30;99.90;;;;;;5034927;28;20044;-53
2021/07/26 12:41:03;;;;;;;3.05;2.80;;;22.50;99.90;;;;;;5035707;28;20117;-50
2021/07/26 12:43:29;;;;;;;4.72;2.35;;;22.60;99.90;;;;;;5037276;28;20021;-51
2021/07/26 12:45:57;;;;;;;3.08;2.33;;;22.80;99.50;;;;;;5035188;28;20033;-47
2021/07/26 12:48:23;;;;;;;2.42;2.13;;;22.90;98.90;;;;;;5034294;28;20506;-53
2021/07/26 12:50:50;;;;;;;2.33;1.80;;;23.10;99.00;;;;;;5034131;28;20064;-52
2021/07/26 12:53:17;;;;;;;5.70;1.95;;;23.20;97.60;;;;;;5016012;28;20172;-57
2021/07/26 12:55:44;;;;;;;3.10;2.08;;;23.20;97.60;;;;;;5034459;28;20395;-52